createdAt,value
2023-03-16T00:23:32.468Z,9.43
2023-03-16T00:26:05.513Z,9.37
2023-03-16T00:28:36.320Z,12.37
2023-03-16T00:31:06.448Z,9.27
2023-03-16T00:33:38.094Z,10.87
2023-03-16T00:36:09.889Z,7.73
2023-03-16T00:38:45.428Z,11.03
2023-03-16T00:41:18.631Z,10.37
2023-03-16T00:44:02.180Z,9.00
2023-03-16T00:46:31.633Z,10.10
2023-03-16T00:49:00.298Z,11.83
2023-03-16T00:51:29.117Z,7.63
2023-03-16T00:54:04.688Z,10.07
2023-03-16T00:56:33.270Z,10.20
2023-03-16T00:59:01.853Z,10.73
2023-03-16T01:01:30.668Z,12.07
2023-03-16T01:04:00.079Z,10.47
2023-03-16T01:06:29.656Z,9.47
2023-03-16T01:09:06.176Z,8.67
2023-03-16T01:11:37.851Z,11.13
2023-03-16T01:14:07.914Z,10.40
2023-03-16T01:16:36.249Z,13.57
2023-03-16T01:19:05.537Z,10.10
2023-03-16T01:21:34.135Z,8.35
2023-03-16T01:24:04.637Z,8.80
2023-03-16T01:26:34.074Z,8.20
2023-03-16T01:29:02.751Z,10.70
2023-03-16T01:31:32.173Z,8.70
2023-03-16T01:34:01.357Z,9.93
2023-03-16T01:36:30.231Z,14.80
2023-03-16T01:39:00.286Z,9.30
2023-03-16T01:41:34.465Z,12.60
2023-03-16T01:44:03.355Z,12.20
2023-03-16T01:46:35.424Z,11.17
2023-03-16T01:49:09.597Z,10.07
2023-03-16T01:51:43.328Z,10.93
2023-03-16T01:54:17.750Z,12.77
2023-03-16T01:56:55.856Z,11.07
2023-03-16T01:59:32.534Z,9.63
2023-03-16T02:02:02.176Z,10.77
2023-03-16T02:04:48.579Z,8.63
2023-03-16T02:07:19.183Z,11.40
2023-03-16T02:09:52.163Z,14.10
2023-03-16T02:12:23.084Z,9.13
2023-03-16T02:14:52.985Z,10.33
2023-03-16T02:17:27.321Z,10.23
2023-03-16T02:20:09.207Z,10.33
2023-03-16T02:22:39.263Z,13.73
2023-03-16T02:25:08.443Z,10.23
2023-03-16T02:27:44.306Z,11.20
2023-03-16T02:30:16.058Z,12.47
2023-03-16T02:32:46.205Z,10.73
2023-03-16T02:35:15.383Z,11.70
2023-03-16T02:37:44.587Z,10.47
2023-03-16T02:40:29.624Z,11.13
2023-03-16T02:43:08.978Z,19.70
2023-03-16T02:45:43.353Z,12.45
2023-03-16T02:48:19.216Z,13.10
2023-03-16T02:50:49.921Z,16.10
2023-03-16T02:53:18.674Z,15.97
2023-03-16T02:55:47.529Z,17.03
2023-03-16T02:58:17.364Z,19.33
2023-03-16T03:00:47.688Z,21.03
2023-03-16T03:03:16.263Z,25.30
2023-03-16T03:05:45.151Z,27.33
2023-03-16T03:08:14.308Z,28.50
2023-03-16T03:10:43.218Z,33.20
2023-03-16T03:13:12.547Z,33.53
2023-03-16T03:15:41.302Z,34.20
2023-03-16T03:18:11.577Z,34.83
2023-03-16T03:20:40.267Z,36.47
2023-03-16T03:23:09.001Z,35.10
2023-03-16T03:25:40.319Z,35.97
2023-03-16T03:28:09.352Z,35.07
2023-03-16T03:30:38.976Z,36.90
2023-03-16T03:33:08.309Z,36.40
2023-03-16T03:35:39.143Z,35.53
2023-03-16T03:38:08.532Z,34.93
2023-03-16T03:40:37.216Z,34.77
2023-03-16T03:43:06.592Z,33.20
2023-03-16T03:45:35.128Z,31.70
2023-03-16T03:48:03.969Z,34.03
2023-03-16T03:50:32.549Z,32.90
2023-03-16T03:53:02.797Z,33.50
2023-03-16T03:55:31.483Z,30.77
2023-03-16T03:58:01.691Z,30.03
2023-03-16T04:00:31.207Z,29.13
2023-03-16T04:03:00.081Z,29.90
2023-03-16T04:05:28.798Z,29.20
2023-03-16T04:07:57.970Z,29.27
2023-03-16T04:10:30.537Z,30.43
2023-03-16T04:12:59.916Z,30.83
2023-03-16T04:15:36.653Z,30.03
2023-03-16T04:18:05.948Z,30.53
2023-03-16T04:20:38.159Z,31.40
2023-03-16T04:23:06.660Z,30.23
2023-03-16T04:25:39.833Z,32.17
2023-03-16T04:28:09.786Z,31.07
2023-03-16T04:30:44.211Z,30.80
2023-03-16T04:33:15.839Z,32.07
2023-03-16T04:35:46.268Z,33.87
2023-03-16T04:38:18.225Z,34.10
2023-03-16T04:40:48.807Z,36.70
2023-03-16T04:43:17.407Z,36.93
2023-03-16T04:45:47.054Z,36.57
2023-03-16T04:48:15.926Z,37.57
2023-03-16T04:50:45.225Z,37.63
2023-03-16T04:53:13.931Z,37.00
2023-03-16T04:55:43.234Z,38.10
2023-03-16T04:58:15.295Z,37.57
2023-03-16T05:00:43.992Z,36.50
2023-03-16T05:03:12.657Z,36.30
2023-03-16T05:05:42.854Z,36.20
2023-03-16T05:08:12.900Z,36.43
2023-03-16T05:10:42.030Z,36.07
2023-03-16T05:13:10.746Z,36.53
2023-03-16T05:15:43.850Z,37.17
2023-03-16T05:18:12.455Z,35.47
2023-03-16T05:20:41.621Z,35.93
2023-03-16T05:23:10.208Z,36.07
2023-03-16T05:25:40.598Z,37.43
2023-03-16T05:28:09.686Z,36.87
2023-03-16T05:30:38.624Z,37.43
2023-03-16T05:33:08.832Z,37.60
2023-03-16T05:35:38.704Z,37.03
2023-03-16T05:38:07.691Z,38.47
2023-03-16T05:40:40.342Z,36.80
2023-03-16T05:46:23.626Z,37.00
2023-03-16T05:49:07.869Z,36.80
2023-03-16T05:51:44.146Z,36.60
2023-03-16T05:54:20.509Z,36.67
2023-03-16T05:56:57.790Z,35.63
2023-03-16T05:59:26.576Z,35.50
2023-03-16T06:01:56.582Z,36.87
2023-03-16T06:04:27.131Z,36.37
2023-03-16T06:06:59.113Z,37.33
2023-03-16T06:09:28.125Z,36.80
2023-03-16T06:11:56.675Z,36.07
2023-03-16T06:14:25.522Z,36.10
2023-03-16T06:16:53.776Z,36.13
2023-03-16T06:19:22.367Z,35.63
2023-03-16T06:21:52.275Z,35.93
2023-03-16T06:27:55.950Z,35.27
2023-03-16T06:30:24.932Z,38.83
2023-03-16T06:32:53.660Z,35.80
2023-03-16T06:35:22.519Z,35.03
2023-03-16T06:37:52.069Z,35.77
2023-03-16T06:40:20.497Z,36.83
2023-03-16T06:42:49.644Z,36.23
2023-03-16T06:45:22.232Z,35.97
2023-03-16T06:47:51.241Z,35.43
2023-03-16T06:50:23.067Z,35.93
2023-03-16T06:53:01.857Z,35.87
2023-03-16T06:55:31.870Z,35.70
2023-03-16T06:58:00.586Z,35.17
2023-03-16T07:00:32.014Z,37.07
2023-03-16T07:03:01.183Z,36.17
2023-03-16T07:05:33.321Z,37.10
2023-03-16T07:08:07.449Z,35.80
2023-03-16T07:10:36.835Z,36.63
2023-03-16T07:13:07.646Z,35.93
2023-03-16T07:15:47.329Z,36.40
2023-03-16T07:18:16.012Z,36.43
2023-03-16T07:20:44.538Z,36.40
2023-03-16T07:23:14.905Z,35.47
2023-03-16T07:25:45.025Z,36.20
2023-03-16T07:28:13.946Z,35.30
2023-03-16T07:30:53.221Z,34.53
2023-03-16T07:33:29.389Z,34.70
2023-03-16T07:35:57.984Z,35.33
2023-03-16T07:38:28.321Z,34.07
2023-03-16T07:40:57.357Z,34.60
2023-03-16T07:43:26.302Z,34.63
2023-03-16T07:45:56.948Z,34.90
2023-03-16T07:48:48.545Z,33.92
2023-03-16T07:51:38.166Z,34.47
2023-03-16T07:54:08.494Z,34.67
2023-03-16T07:56:48.426Z,34.93
2023-03-16T07:59:20.861Z,35.33
2023-03-16T08:01:49.809Z,34.30
2023-03-16T08:04:18.307Z,34.40
2023-03-16T08:06:48.707Z,34.50
2023-03-16T08:09:21.941Z,34.10
2023-03-16T08:11:51.340Z,34.38
2023-03-16T08:14:20.065Z,34.15
2023-03-16T08:16:50.728Z,33.40
2023-03-16T08:19:20.649Z,34.53
2023-03-16T08:22:01.185Z,34.03
2023-03-16T08:24:31.913Z,35.38
2023-03-16T08:27:01.554Z,35.13
2023-03-16T08:29:32.244Z,34.25
2023-03-16T08:32:00.544Z,33.73
2023-03-16T08:34:29.281Z,34.10
2023-03-16T08:36:57.630Z,34.10
2023-03-16T08:39:26.054Z,33.95
2023-03-16T08:41:56.686Z,32.50
2023-03-16T08:44:26.446Z,32.50
2023-03-16T08:46:55.429Z,31.67
2023-03-16T08:49:24.152Z,30.60
2023-03-16T08:51:52.491Z,28.67
2023-03-16T08:54:21.140Z,29.33
2023-03-16T08:56:49.810Z,26.85
2023-03-16T08:59:29.054Z,26.70
2023-03-16T09:01:58.877Z,24.73
2023-03-16T09:04:28.562Z,23.02
2023-03-16T09:07:10.807Z,19.67
2023-03-16T09:09:39.867Z,16.63
2023-03-16T09:12:08.744Z,16.60
2023-03-16T09:14:39.722Z,12.70
2023-03-16T09:17:09.280Z,11.88
2023-03-16T09:19:50.604Z,10.63
2023-03-16T09:22:19.650Z,9.32
2023-03-16T09:24:48.559Z,8.98
2023-03-16T09:27:20.732Z,6.38
2023-03-16T09:29:52.981Z,6.50
2023-03-16T09:32:22.084Z,8.43
2023-03-16T09:34:50.768Z,5.40
2023-03-16T09:37:18.997Z,5.70
2023-03-16T09:39:48.160Z,6.72
2023-03-16T09:42:24.241Z,7.50
2023-03-16T09:45:06.675Z,6.53
2023-03-16T09:47:36.179Z,5.13
2023-03-16T09:50:11.023Z,7.65
2023-03-16T09:52:45.168Z,8.77
2023-03-16T09:55:23.803Z,6.57
2023-03-16T09:57:56.178Z,5.57
2023-03-16T10:00:29.064Z,9.07
2023-03-16T10:03:06.509Z,3.60
2023-03-16T10:05:37.263Z,5.07
2023-03-16T10:08:13.936Z,6.68
2023-03-16T10:11:18.593Z,4.35
2023-03-16T10:13:52.649Z,5.43
2023-03-16T10:16:27.248Z,4.72
2023-03-16T10:19:02.892Z,9.10
2023-03-16T10:21:35.347Z,4.72
2023-03-16T10:24:05.606Z,7.22
2023-03-16T10:26:40.898Z,4.78
2023-03-16T10:29:14.785Z,4.97
2023-03-16T10:31:46.185Z,13.02
2023-03-16T10:34:15.359Z,5.10
2023-03-16T10:36:45.916Z,5.28
2023-03-16T10:39:16.410Z,7.97
2023-03-16T10:41:47.232Z,6.07
2023-03-16T10:44:18.445Z,6.40
2023-03-16T10:46:50.671Z,7.90
2023-03-16T10:49:25.889Z,4.55
2023-03-16T10:51:55.715Z,5.20
2023-03-16T10:54:30.560Z,5.68
2023-03-16T10:56:59.274Z,6.35
2023-03-16T10:59:34.441Z,6.88
2023-03-16T11:02:17.178Z,6.03
2023-03-16T11:04:47.220Z,6.15
2023-03-16T11:07:20.995Z,4.30
2023-03-16T11:09:52.812Z,5.90
2023-03-16T11:12:26.978Z,9.73
2023-03-16T11:14:56.387Z,5.60
2023-03-16T11:17:35.374Z,5.93
2023-03-16T11:20:14.575Z,5.13
2023-03-16T11:22:47.418Z,4.22
2023-03-16T11:25:20.723Z,6.00
2023-03-16T11:27:55.600Z,5.50
2023-03-16T11:30:31.062Z,6.10
2023-03-16T11:33:01.626Z,6.72
2023-03-16T11:35:46.546Z,6.07
2023-03-16T11:38:22.905Z,4.72
2023-03-16T11:40:59.344Z,7.47
2023-03-16T11:43:53.618Z,5.85
2023-03-16T11:46:25.134Z,7.03
2023-03-16T11:49:32.945Z,6.07
2023-03-16T11:52:06.517Z,4.57
2023-03-16T11:54:55.660Z,7.00
2023-03-16T11:57:36.051Z,4.03
2023-03-16T12:00:28.329Z,3.45
2023-03-16T12:03:17.590Z,5.03
2023-03-16T12:05:57.730Z,5.65
2023-03-16T12:08:48.926Z,3.83
2023-03-16T12:11:24.440Z,5.90
2023-03-16T12:14:04.375Z,7.13
2023-03-16T12:16:48.644Z,10.23
2023-03-16T12:19:25.764Z,4.93
2023-03-16T12:22:04.346Z,6.70
2023-03-16T12:24:38.342Z,9.65
2023-03-16T12:27:08.651Z,6.05
2023-03-16T12:29:43.907Z,8.75
2023-03-16T12:32:17.455Z,5.43
2023-03-16T12:34:52.386Z,6.32
2023-03-16T12:37:39.103Z,6.38
2023-03-16T12:40:23.469Z,3.97
2023-03-16T12:43:27.134Z,4.55
2023-03-16T12:46:05.595Z,8.57
2023-03-16T12:48:49.977Z,5.43
2023-03-16T12:51:18.595Z,5.28
2023-03-16T12:53:57.406Z,5.20
2023-03-16T12:56:31.072Z,6.25
2023-03-16T12:59:05.965Z,4.20
2023-03-16T13:01:43.814Z,6.20
2023-03-16T13:04:24.312Z,3.97
2023-03-16T13:07:03.867Z,6.38
2023-03-16T13:09:37.224Z,6.03
2023-03-16T13:12:06.734Z,5.38
2023-03-16T13:14:43.112Z,4.55
2023-03-16T13:17:29.180Z,7.63
2023-03-16T13:20:03.288Z,7.93
2023-03-16T13:22:44.335Z,2.22
2023-03-16T13:25:23.325Z,7.63
2023-03-16T13:27:56.031Z,8.13
2023-03-16T13:30:29.749Z,4.03
2023-03-16T13:33:03.540Z,4.72
2023-03-16T13:35:33.166Z,5.90
2023-03-16T13:38:05.662Z,4.78
2023-03-16T13:40:38.030Z,6.50
2023-03-16T13:43:07.197Z,5.40
2023-03-16T13:45:39.235Z,8.10
2023-03-16T13:48:07.777Z,6.93
2023-03-16T13:50:38.663Z,5.50
2023-03-16T13:53:15.043Z,4.00
2023-03-16T13:55:48.661Z,6.10
2023-03-16T13:58:23.644Z,5.78
2023-03-16T14:00:55.926Z,8.07
2023-03-16T14:03:24.757Z,5.22
2023-03-16T14:05:53.640Z,3.15
2023-03-16T14:08:26.973Z,5.63
2023-03-16T14:11:00.925Z,4.28
2023-03-16T14:13:39.539Z,5.38
2023-03-16T14:16:14.293Z,6.43
2023-03-16T14:18:44.350Z,3.85
2023-03-16T14:21:17.944Z,2.78
2023-03-16T14:23:47.928Z,4.65
2023-03-16T14:26:19.920Z,5.00
2023-03-16T14:29:02.964Z,5.45
2023-03-16T14:31:36.357Z,6.38
2023-03-16T14:34:08.872Z,4.38
2023-03-16T14:36:39.174Z,5.40
2023-03-16T14:39:14.501Z,3.58
2023-03-16T14:41:45.332Z,3.05
2023-03-16T14:44:24.094Z,5.05
2023-03-16T14:46:54.036Z,5.78
2023-03-16T14:49:26.043Z,4.90
2023-03-16T14:51:56.918Z,2.40
2023-03-16T14:54:26.176Z,2.72
2023-03-16T14:57:00.966Z,3.47
2023-03-16T14:59:29.584Z,5.20
2023-03-16T15:01:59.367Z,6.68
2023-03-16T15:04:31.361Z,2.75
2023-03-16T15:06:59.831Z,3.55
2023-03-16T15:09:35.616Z,4.60
2023-03-16T15:12:06.006Z,6.35
2023-03-16T15:14:48.477Z,1.88
2023-03-16T15:17:18.931Z,2.92
2023-03-16T15:20:16.352Z,4.15
2023-03-16T15:22:46.214Z,3.08
2023-03-16T15:25:24.334Z,4.53
2023-03-16T15:27:55.053Z,3.90
2023-03-16T15:30:26.379Z,4.25
2023-03-16T15:32:54.987Z,6.10
2023-03-16T15:35:27.173Z,2.72
2023-03-16T15:38:07.125Z,4.75
2023-03-16T15:40:37.028Z,3.17
2023-03-16T15:43:18.807Z,2.88
2023-03-16T15:45:50.620Z,2.95
2023-03-16T15:48:20.430Z,2.70
2023-03-16T15:50:54.953Z,1.70
2023-03-16T15:53:30.838Z,4.05
2023-03-16T15:56:03.845Z,1.95
2023-03-16T15:58:35.299Z,4.13
2023-03-16T16:01:05.353Z,6.72
2023-03-16T16:03:34.067Z,3.25
2023-03-16T16:06:03.187Z,6.30
2023-03-16T16:08:31.562Z,4.00
2023-03-16T16:10:59.930Z,4.22
2023-03-16T16:13:43.473Z,11.02
2023-03-16T16:16:16.939Z,4.60
2023-03-16T16:18:46.632Z,4.72
2023-03-16T16:21:18.154Z,2.60
2023-03-16T16:23:46.578Z,2.55
2023-03-16T16:26:41.505Z,8.88
2023-03-16T16:29:17.370Z,2.92
2023-03-16T16:31:47.222Z,2.30
2023-03-16T16:34:17.717Z,3.70
2023-03-16T16:36:52.341Z,3.50
2023-03-16T16:39:20.815Z,4.18
2023-03-16T16:41:50.871Z,4.53
2023-03-16T16:44:23.614Z,3.83
2023-03-16T16:46:54.999Z,3.05
2023-03-16T16:49:26.036Z,2.50
2023-03-16T16:51:56.972Z,2.28
2023-03-16T16:54:29.276Z,5.03
2023-03-16T16:56:59.180Z,5.93
2023-03-16T16:59:30.626Z,2.65
2023-03-16T17:02:01.916Z,4.95
2023-03-16T17:04:30.818Z,4.45
2023-03-16T17:07:01.955Z,3.30
2023-03-16T17:09:36.939Z,5.65
2023-03-16T17:12:33.320Z,3.75
2023-03-16T17:15:01.585Z,4.55
2023-03-16T17:17:31.919Z,3.50
2023-03-16T17:20:00.161Z,3.40
2023-03-16T17:22:30.341Z,3.30
2023-03-16T17:24:58.549Z,3.20
2023-03-16T17:27:29.692Z,11.63
2023-03-16T17:29:58.675Z,4.15
2023-03-16T17:32:27.203Z,6.40
2023-03-16T17:34:58.943Z,5.80
2023-03-16T17:37:30.555Z,6.18
2023-03-16T17:39:58.721Z,6.35
2023-03-16T17:42:27.223Z,7.63
2023-03-16T17:44:58.561Z,7.63
2023-03-16T17:47:28.675Z,9.88
2023-03-16T17:49:58.514Z,9.93
2023-03-16T17:52:30.384Z,6.75
2023-03-16T17:54:59.043Z,4.75
2023-03-16T17:57:32.480Z,5.78
2023-03-16T18:00:02.135Z,6.43
2023-03-16T18:02:45.144Z,11.05
2023-03-16T18:05:21.672Z,9.93
2023-03-16T18:07:50.854Z,9.20
2023-03-16T18:10:24.045Z,5.40
2023-03-16T18:12:59.928Z,6.57
2023-03-16T18:15:33.322Z,7.75
2023-03-16T18:18:15.743Z,5.22
2023-03-16T18:20:55.568Z,7.07
2023-03-16T18:23:30.438Z,5.78
2023-03-16T18:26:03.338Z,7.40
2023-03-16T18:28:33.287Z,5.97
2023-03-16T18:31:06.159Z,6.50
2023-03-16T18:33:41.256Z,10.02
2023-03-16T18:36:19.628Z,5.13
2023-03-16T18:38:54.983Z,4.63
2023-03-16T18:41:30.486Z,4.20
2023-03-16T18:44:04.074Z,4.60
2023-03-16T18:46:35.039Z,4.45
2023-03-16T18:49:06.616Z,4.93
2023-03-16T18:51:42.193Z,5.30
2023-03-16T18:54:38.156Z,6.03
2023-03-16T18:57:16.547Z,6.55
2023-03-16T18:59:48.089Z,7.60
2023-03-16T19:02:29.957Z,4.63
2023-03-16T19:05:01.535Z,5.20
2023-03-16T19:07:36.714Z,3.08
2023-03-16T19:10:16.649Z,3.72
2023-03-16T19:12:45.220Z,5.95
2023-03-16T19:15:21.847Z,2.92
2023-03-16T19:17:53.809Z,4.97
2023-03-16T19:20:27.346Z,5.38
2023-03-16T19:23:03.097Z,4.10
2023-03-16T19:25:37.694Z,4.03
2023-03-16T19:28:07.840Z,5.25
2023-03-16T19:30:37.655Z,3.45
2023-03-16T19:33:18.617Z,2.63
2023-03-16T19:35:51.973Z,3.33
2023-03-16T19:38:27.118Z,5.90
2023-03-16T19:41:04.007Z,4.35
2023-03-16T19:43:32.598Z,5.68
2023-03-16T19:46:06.256Z,7.03
2023-03-16T19:48:35.769Z,7.70
2023-03-16T19:51:06.994Z,5.05
2023-03-16T19:53:38.798Z,5.72
2023-03-16T19:56:18.367Z,7.43
2023-03-16T19:58:48.775Z,5.75
2023-03-16T20:01:22.516Z,6.85
2023-03-16T20:03:57.669Z,5.32
2023-03-16T20:06:30.422Z,6.32
2023-03-16T20:09:00.236Z,5.40
2023-03-16T20:11:33.949Z,3.17
2023-03-16T20:14:17.454Z,5.18
2023-03-16T20:16:48.296Z,6.00
2023-03-16T20:19:17.870Z,4.10
2023-03-16T20:21:54.254Z,5.22
2023-03-16T20:24:34.025Z,4.78
2023-03-16T20:27:05.849Z,4.95
2023-03-16T20:29:49.304Z,5.43
2023-03-16T20:32:36.422Z,3.08
2023-03-16T20:35:05.094Z,5.80
2023-03-16T20:37:34.180Z,5.05
2023-03-16T20:40:09.750Z,4.60
2023-03-16T20:42:38.833Z,3.67
2023-03-16T20:45:21.206Z,5.07
2023-03-16T20:47:49.937Z,4.60
2023-03-16T20:50:22.861Z,6.20
2023-03-16T20:52:51.967Z,4.40
2023-03-16T20:55:25.259Z,6.75
2023-03-16T20:57:58.633Z,4.90
2023-03-16T21:00:33.623Z,4.13
2023-03-16T21:03:05.266Z,7.22
2023-03-16T21:05:34.178Z,6.13
2023-03-16T21:08:02.693Z,5.22
2023-03-16T21:10:32.891Z,5.38
2023-03-16T21:13:01.671Z,4.95
2023-03-16T21:15:32.400Z,5.82
2023-03-16T21:18:03.686Z,2.63
2023-03-16T21:20:33.576Z,6.95
2023-03-16T21:23:02.758Z,8.02
2023-03-16T21:25:35.683Z,3.25
2023-03-16T21:28:06.465Z,5.13
2023-03-16T21:30:38.527Z,4.28
2023-03-16T21:33:19.159Z,5.40
2023-03-16T21:35:53.533Z,5.43
2023-03-16T21:38:44.068Z,8.85
2023-03-16T21:41:15.387Z,6.57
2023-03-16T21:43:54.148Z,3.65
2023-03-16T21:46:27.072Z,6.55
2023-03-16T21:49:13.703Z,7.15
2023-03-16T21:51:55.818Z,6.50
2023-03-16T21:54:24.092Z,8.13
2023-03-16T21:57:00.761Z,8.00
2023-03-16T21:59:29.859Z,4.07
2023-03-16T22:02:02.203Z,5.15
2023-03-16T22:07:54.788Z,4.85
2023-03-16T22:10:26.739Z,5.30
2023-03-16T22:12:58.330Z,4.57
2023-03-16T22:15:28.405Z,4.90
2023-03-16T22:18:09.787Z,5.30
2023-03-16T22:20:38.541Z,4.88
2023-03-16T22:23:07.631Z,6.32
2023-03-16T22:25:36.262Z,7.00
2023-03-16T22:28:13.334Z,7.03
2023-03-16T22:30:43.290Z,8.18
2023-03-16T22:33:15.222Z,5.38
2023-03-16T22:35:44.077Z,6.05
2023-03-16T22:38:15.654Z,4.45
2023-03-16T22:40:44.540Z,4.80
2023-03-16T22:43:30.196Z,5.93
2023-03-16T22:46:01.152Z,6.05
2023-03-16T22:48:32.839Z,6.53
2023-03-16T22:51:04.759Z,6.70
2023-03-16T22:53:41.665Z,5.05
2023-03-16T22:56:11.632Z,4.50
2023-03-16T22:58:44.904Z,5.32
2023-03-16T23:01:18.712Z,4.40
2023-03-16T23:03:50.596Z,3.85
2023-03-16T23:06:21.855Z,3.20
2023-03-16T23:08:51.294Z,4.18
2023-03-16T23:11:23.934Z,5.10
2023-03-16T23:13:55.293Z,5.63
2023-03-16T23:16:28.914Z,5.10
2023-03-16T23:18:57.857Z,6.25
2023-03-16T23:21:28.356Z,5.13
2023-03-16T23:24:03.902Z,5.63
2023-03-16T23:26:35.071Z,5.75
2023-03-16T23:29:07.183Z,6.22
2023-03-16T23:31:36.589Z,8.30
2023-03-16T23:34:12.803Z,3.80
2023-03-16T23:36:42.322Z,4.35
2023-03-16T23:39:12.658Z,4.22
2023-03-16T23:41:44.748Z,5.22
2023-03-16T23:44:18.291Z,6.22
2023-03-16T23:46:48.334Z,6.05
2023-03-16T23:49:20.609Z,7.63
2023-03-16T23:51:50.790Z,4.78
2023-03-16T23:54:21.963Z,4.97
2023-03-16T23:56:51.187Z,5.18
2023-03-16T23:59:23.730Z,4.65
